Time;durP1;ratioP1;P1;durP2;ratioP2;P2;SDS_P1;SDS_P2;PMS_P1;PMS_P2;Temp;Humidity;BMP_temperature;BMP_pressure;BME280_temperature;BME280_humidity;BME280_pressure;Samples;Min_cycle;Max_cycle;Signal;HPM_P1;HPM_P2
2021/04/25 00:00:20;;;;;;;12.48;7.60;;;;;;;;;;1496729;39;20393;-84
2021/04/25 00:01:21;;;;;;;14.32;8.93;;;;;;;;;;1494682;39;20526;-83
2021/04/25 00:02:22;;;;;;;14.93;7.88;;;;;;;;;;1498467;39;20442;-83
2021/04/25 00:03:23;;;;;;;12.07;7.68;;;;;;;;;;1499367;39;20459;-83
2021/04/25 00:04:24;;;;;;;14.20;7.20;;;;;;;;;;1492704;39;20398;-83
2021/04/25 00:05:25;;;;;;;11.43;7.07;;;;;;;;;;1493361;39;20411;-84
2021/04/25 00:06:26;;;;;;;13.55;6.88;;;;;;;;;;1501515;39;20387;-85
2021/04/25 00:07:28;;;;;;;9.25;6.68;;;;;;;;;;1497114;39;20400;-84
2021/04/25 00:08:29;;;;;;;10.90;6.47;;;;;;;;;;1492748;39;20403;-82
2021/04/25 00:09:30;;;;;;;13.07;6.88;;;;;;;;;;1497400;39;20433;-81
2021/04/25 00:10:31;;;;;;;9.48;6.68;;;;;;;;;;1489258;40;20401;-83
2021/04/25 00:11:34;;;;;;;11.27;7.18;;;;;;;;;;1488341;39;20420;-83
2021/04/25 00:12:35;;;;;;;9.40;6.47;;;;;;;;;;1486012;40;20408;-83
2021/04/25 00:13:36;;;;;;;13.13;6.53;;;;;;;;;;1481071;40;20402;-83
2021/04/25 00:14:37;;;;;;;11.40;6.57;;;;;;;;;;1485515;39;20520;-81
2021/04/25 00:15:38;;;;;;;12.98;6.88;;;;;;;;;;1491664;39;20443;-83
2021/04/25 00:16:39;;;;;;;10.63;6.75;;;;;;;;;;1494294;39;20412;-83
2021/04/25 00:17:40;;;;;;;12.02;6.40;;;;;;;;;;1491021;39;20412;-83
2021/04/25 00:18:44;;;;;;;8.88;5.70;;;;;;;;;;1491608;39;20430;-83
2021/04/25 00:19:45;;;;;;;10.82;6.40;;;;;;;;;;1491456;39;20401;-84
2021/04/25 00:20:46;;;;;;;11.77;6.90;;;;;;;;;;1490583;39;20397;-83
2021/04/25 00:21:47;;;;;;;11.02;6.95;;;;;;;;;;1485195;39;20422;-84
2021/04/25 00:22:49;;;;;;;11.55;6.88;;;;;;;;;;1483537;39;20380;-84
2021/04/25 00:23:50;;;;;;;11.47;6.23;;;;;;;;;;1488617;39;20406;-84
2021/04/25 00:24:52;;;;;;;12.13;6.85;;;;;;;;;;1494224;39;20584;-83
2021/04/25 00:25:54;;;;;;;10.48;6.32;;;;;;;;;;1490088;40;20406;-83
2021/04/25 00:26:55;;;;;;;10.98;6.60;;;;;;;;;;1488135;39;20391;-83
2021/04/25 00:27:56;;;;;;;13.70;6.20;;;;;;;;;;1491301;39;20393;-84
2021/04/25 00:28:57;;;;;;;12.15;6.63;;;;;;;;;;1487505;39;20558;-82
2021/04/25 00:30:00;;;;;;;16.08;6.35;;;;;;;;;;1482911;40;20698;-82
2021/04/25 00:31:01;;;;;;;9.57;6.38;;;;;;;;;;1492073;39;20440;-83
2021/04/25 00:32:02;;;;;;;12.18;6.45;;;;;;;;;;1490206;39;20393;-83
2021/04/25 00:33:03;;;;;;;10.50;6.50;;;;;;;;;;1488031;39;20406;-83
2021/04/25 00:34:04;;;;;;;9.38;6.50;;;;;;;;;;1491441;39;20774;-83
2021/04/25 00:35:06;;;;;;;11.15;6.55;;;;;;;;;;1491194;39;20393;-83
2021/04/25 00:36:07;;;;;;;9.88;6.72;;;;;;;;;;1482839;39;20400;-83
2021/04/25 00:37:08;;;;;;;13.02;6.72;;;;;;;;;;1487319;39;20477;-83
2021/04/25 00:38:10;;;;;;;12.38;7.50;;;;;;;;;;1489851;39;20494;-83
2021/04/25 00:39:11;;;;;;;11.80;6.60;;;;;;;;;;1491150;39;20412;-84
2021/04/25 00:40:13;;;;;;;10.20;6.20;;;;;;;;;;1494906;39;20831;-83
2021/04/25 00:41:14;;;;;;;13.00;7.60;;;;;;;;;;1490817;39;20542;-84
2021/04/25 00:42:16;;;;;;;11.77;6.70;;;;;;;;;;1490505;39;21036;-83
2021/04/25 00:43:17;;;;;;;10.88;6.95;;;;;;;;;;1494925;39;20396;-83
2021/04/25 00:44:20;;;;;;;13.68;7.80;;;;;;;;;;1494484;39;20400;-84
2021/04/25 00:45:21;;;;;;;13.80;6.10;;;;;;;;;;1489282;39;20587;-84
2021/04/25 00:46:22;;;;;;;11.07;7.00;;;;;;;;;;1488115;39;20543;-83
2021/04/25 00:47:23;;;;;;;9.15;7.03;;;;;;;;;;1486511;39;20891;-83
2021/04/25 00:48:24;;;;;;;10.45;7.20;;;;;;;;;;1490726;39;20397;-84
2021/04/25 00:49:25;;;;;;;13.23;7.43;;;;;;;;;;1490633;39;20422;-83
2021/04/25 00:50:26;;;;;;;11.98;7.60;;;;;;;;;;1486471;39;20401;-83
2021/04/25 00:51:27;;;;;;;12.25;7.68;;;;;;;;;;1490601;39;20451;-83
2021/04/25 00:52:28;;;;;;;12.80;7.10;;;;;;;;;;1490703;39;20401;-83
2021/04/25 00:53:29;;;;;;;10.95;7.65;;;;;;;;;;1490559;39;20435;-82
2021/04/25 00:54:30;;;;;;;13.20;7.57;;;;;;;;;;1482954;40;20404;-84
2021/04/25 00:55:32;;;;;;;13.88;7.68;;;;;;;;;;1478630;40;20417;-83
2021/04/25 00:56:33;;;;;;;14.82;7.75;;;;;;;;;;1483246;39;20409;-84
2021/04/25 00:57:35;;;;;;;13.45;7.18;;;;;;;;;;1486692;39;20454;-85
2021/04/25 00:58:36;;;;;;;11.23;7.25;;;;;;;;;;1491514;39;20397;-83
2021/04/25 00:59:37;;;;;;;12.02;7.40;;;;;;;;;;1491630;39;20406;-83
2021/04/25 01:00:38;;;;;;;13.60;7.67;;;;;;;;;;1492840;39;20401;-83
2021/04/25 01:01:39;;;;;;;13.63;8.00;;;;;;;;;;1482410;40;20420;-83
2021/04/25 01:02:40;;;;;;;13.05;7.57;;;;;;;;;;1479146;39;20414;-83
2021/04/25 01:03:42;;;;;;;12.77;7.57;;;;;;;;;;1486505;39;20403;-83
2021/04/25 01:04:42;;;;;;;11.48;7.40;;;;;;;;;;1482678;40;20423;-83
2021/04/25 01:05:45;;;;;;;14.45;8.30;;;;;;;;;;1482059;39;20393;-84
2021/04/25 01:06:47;;;;;;;13.27;7.65;;;;;;;;;;1486829;39;20420;-85
2021/04/25 01:07:49;;;;;;;15.15;8.48;;;;;;;;;;1486133;39;20419;-83
2021/04/25 01:08:51;;;;;;;11.48;7.57;;;;;;;;;;1486661;39;20413;-83
2021/04/25 01:09:52;;;;;;;13.73;7.68;;;;;;;;;;1490124;39;20469;-84
2021/04/25 01:10:53;;;;;;;12.73;7.80;;;;;;;;;;1493340;39;20795;-83
2021/04/25 01:11:54;;;;;;;18.33;8.82;;;;;;;;;;1490632;39;20397;-83
2021/04/25 01:12:56;;;;;;;10.32;7.35;;;;;;;;;;1491900;39;20432;-83
2021/04/25 01:13:59;;;;;;;11.93;7.47;;;;;;;;;;1491591;39;20394;-82
2021/04/25 01:15:21;;;;;;;16.02;8.30;;;;;;;;;;1488150;39;20473;-83
2021/04/25 01:16:22;;;;;;;12.77;7.90;;;;;;;;;;1487710;39;20719;-83
2021/04/25 01:17:23;;;;;;;15.25;7.97;;;;;;;;;;1482533;40;20397;-83
2021/04/25 01:18:24;;;;;;;16.15;8.13;;;;;;;;;;1489872;39;20423;-83
2021/04/25 01:19:25;;;;;;;11.98;7.60;;;;;;;;;;1490544;39;20417;-83
2021/04/25 01:20:26;;;;;;;13.65;7.55;;;;;;;;;;1486582;39;20496;-82
2021/04/25 01:21:28;;;;;;;12.45;8.23;;;;;;;;;;1491038;39;21149;-85
2021/04/25 01:22:29;;;;;;;13.80;7.43;;;;;;;;;;1491881;39;20401;-83
2021/04/25 01:23:31;;;;;;;13.68;7.43;;;;;;;;;;1491480;39;20469;-83
2021/04/25 01:24:34;;;;;;;12.85;7.47;;;;;;;;;;1487641;39;20440;-85
2021/04/25 01:25:36;;;;;;;12.65;7.18;;;;;;;;;;1488164;39;20413;-83
2021/04/25 01:26:39;;;;;;;12.05;6.65;;;;;;;;;;1494759;39;20539;-83
2021/04/25 01:27:41;;;;;;;10.03;6.73;;;;;;;;;;1491875;39;20553;-84
2021/04/25 01:28:42;;;;;;;11.10;6.97;;;;;;;;;;1487235;39;20410;-84
2021/04/25 01:29:44;;;;;;;10.70;6.53;;;;;;;;;;1490528;39;20397;-83
2021/04/25 01:30:45;;;;;;;14.00;6.65;;;;;;;;;;1491641;39;20432;-83
2021/04/25 01:31:46;;;;;;;11.70;7.15;;;;;;;;;;1490829;39;20404;-84
2021/04/25 01:32:48;;;;;;;9.45;6.38;;;;;;;;;;1487662;39;20410;-83
2021/04/25 01:33:49;;;;;;;10.60;7.20;;;;;;;;;;1490169;39;20406;-83
2021/04/25 01:34:51;;;;;;;12.05;7.72;;;;;;;;;;1486347;39;20419;-83
2021/04/25 01:35:52;;;;;;;16.83;7.43;;;;;;;;;;1482010;39;20481;-83
2021/04/25 01:36:56;;;;;;;12.03;6.90;;;;;;;;;;1486781;39;20437;-83
2021/04/25 01:37:57;;;;;;;9.32;6.03;;;;;;;;;;1494643;39;20903;-83
2021/04/25 01:38:58;;;;;;;19.23;7.18;;;;;;;;;;1487094;39;20549;-83
2021/04/25 01:40:00;;;;;;;23.67;7.70;;;;;;;;;;1491084;39;20416;-83
2021/04/25 01:41:01;;;;;;;13.23;6.80;;;;;;;;;;1495725;39;20909;-82
2021/04/25 01:42:13;;;;;;;13.40;6.88;;;;;;;;;;1495489;39;20414;-83
2021/04/25 01:43:20;;;;;;;13.13;7.18;;;;;;;;;;1485958;39;20453;-83
2021/04/25 01:44:21;;;;;;;12.68;7.25;;;;;;;;;;1490967;39;20397;-82
2021/04/25 01:45:23;;;;;;;11.05;7.03;;;;;;;;;;1490427;39;20409;-82
2021/04/25 01:46:24;;;;;;;14.27;7.78;;;;;;;;;;1491097;39;20818;-82
2021/04/25 01:47:25;;;;;;;11.27;6.97;;;;;;;;;;1491288;39;20404;-83
2021/04/25 01:48:26;;;;;;;13.90;7.25;;;;;;;;;;1490351;39;20401;-83
2021/04/25 01:49:27;;;;;;;13.20;7.57;;;;;;;;;;1491316;39;20413;-82
2021/04/25 01:50:28;;;;;;;10.35;6.32;;;;;;;;;;1483073;40;20397;-83
2021/04/25 01:51:29;;;;;;;14.32;7.32;;;;;;;;;;1482594;39;20420;-82
2021/04/25 01:52:30;;;;;;;12.75;8.52;;;;;;;;;;1491629;39;20401;-83
2021/04/25 01:53:31;;;;;;;16.00;8.38;;;;;;;;;;1487842;40;20418;-83
2021/04/25 01:54:32;;;;;;;13.27;7.45;;;;;;;;;;1483670;39;20416;-82
2021/04/25 01:55:35;;;;;;;14.00;7.70;;;;;;;;;;1482997;40;20982;-83
2021/04/25 01:56:36;;;;;;;13.52;7.70;;;;;;;;;;1487982;39;20442;-84
2021/04/25 01:57:37;;;;;;;15.93;7.43;;;;;;;;;;1495812;39;20404;-83
2021/04/25 01:58:38;;;;;;;13.50;7.75;;;;;;;;;;1494188;39;20401;-83
2021/04/25 01:59:39;;;;;;;11.85;7.90;;;;;;;;;;1490721;39;20659;-82
2021/04/25 02:00:42;;;;;;;13.95;8.00;;;;;;;;;;1490332;39;20396;-85
2021/04/25 02:01:43;;;;;;;15.65;7.63;;;;;;;;;;1494951;39;20416;-83
2021/04/25 02:02:45;;;;;;;14.48;7.85;;;;;;;;;;1495381;39;20991;-82
2021/04/25 02:03:46;;;;;;;12.57;7.80;;;;;;;;;;1491305;39;20802;-83
2021/04/25 02:04:48;;;;;;;14.68;7.88;;;;;;;;;;1487142;39;20850;-83
2021/04/25 02:05:49;;;;;;;15.02;8.30;;;;;;;;;;1487273;39;20399;-83
2021/04/25 02:06:50;;;;;;;13.60;7.50;;;;;;;;;;1495387;39;20457;-83
2021/04/25 02:07:51;;;;;;;15.63;7.20;;;;;;;;;;1491859;39;20408;-82
2021/04/25 02:08:52;;;;;;;15.07;7.93;;;;;;;;;;1491493;39;20416;-84
2021/04/25 02:09:54;;;;;;;12.68;7.30;;;;;;;;;;1493933;39;20458;-84
2021/04/25 02:10:55;;;;;;;10.27;7.13;;;;;;;;;;1491595;39;20403;-85
2021/04/25 02:11:56;;;;;;;13.35;7.55;;;;;;;;;;1489459;39;20403;-85
2021/04/25 02:12:58;;;;;;;12.90;7.50;;;;;;;;;;1491352;39;20399;-85
2021/04/25 02:14:01;;;;;;;15.18;7.82;;;;;;;;;;1498101;39;20410;-83
2021/04/25 02:15:03;;;;;;;13.00;7.10;;;;;;;;;;1497487;39;20471;-83
2021/04/25 02:16:05;;;;;;;12.35;7.28;;;;;;;;;;1497665;39;20444;-83
2021/04/25 02:17:07;;;;;;;11.77;6.30;;;;;;;;;;1497983;39;20477;-83
2021/04/25 02:18:08;;;;;;;11.00;7.22;;;;;;;;;;1493437;39;20870;-84
2021/04/25 02:19:09;;;;;;;10.38;6.55;;;;;;;;;;1492504;39;20661;-84
2021/04/25 02:20:11;;;;;;;14.32;6.75;;;;;;;;;;1491741;39;20398;-83
2021/04/25 02:21:13;;;;;;;13.30;7.82;;;;;;;;;;1495331;39;21215;-85
2021/04/25 02:22:14;;;;;;;9.02;5.63;;;;;;;;;;1491648;39;20427;-84
2021/04/25 02:23:15;;;;;;;9.00;5.53;;;;;;;;;;1487072;39;20410;-83
2021/04/25 02:24:16;;;;;;;9.23;5.07;;;;;;;;;;1487028;39;20794;-83
2021/04/25 02:25:17;;;;;;;10.52;5.90;;;;;;;;;;1490907;39;20409;-83
2021/04/25 02:26:18;;;;;;;10.20;5.47;;;;;;;;;;1491756;39;20409;-83
2021/04/25 02:27:19;;;;;;;9.02;5.00;;;;;;;;;;1486543;40;20469;-84
2021/04/25 02:28:20;;;;;;;11.45;5.00;;;;;;;;;;1487014;39;20657;-83
2021/04/25 02:29:21;;;;;;;7.65;4.95;;;;;;;;;;1494927;39;20400;-83
2021/04/25 02:30:25;;;;;;;9.07;4.43;;;;;;;;;;1495182;39;20500;-84
2021/04/25 02:31:25;;;;;;;11.30;5.18;;;;;;;;;;1495556;39;20451;-84
2021/04/25 02:32:27;;;;;;;6.05;4.18;;;;;;;;;;1489247;39;20414;-83
2021/04/25 02:33:28;;;;;;;8.35;4.60;;;;;;;;;;1484838;39;20475;-84
2021/04/25 02:34:29;;;;;;;7.80;4.93;;;;;;;;;;1496547;39;20401;-86
2021/04/25 02:35:31;;;;;;;7.55;4.47;;;;;;;;;;1489552;39;20412;-85
2021/04/25 02:36:32;;;;;;;9.05;4.63;;;;;;;;;;1492699;39;20406;-86
2021/04/25 02:37:33;;;;;;;6.53;4.30;;;;;;;;;;1496058;39;20405;-84
2021/04/25 02:38:34;;;;;;;7.45;4.07;;;;;;;;;;1493861;39;20821;-84
2021/04/25 02:39:36;;;;;;;9.38;5.10;;;;;;;;;;1494949;39;20440;-83
2021/04/25 02:40:52;;;;;;;8.93;4.40;;;;;;;;;;1490809;39;20392;-83
2021/04/25 02:41:53;;;;;;;7.32;4.28;;;;;;;;;;1489110;39;20411;-84
2021/04/25 02:42:56;;;;;;;7.07;4.40;;;;;;;;;;1487589;39;20406;-82
2021/04/25 02:43:58;;;;;;;6.05;4.10;;;;;;;;;;1490577;39;20456;-85
2021/04/25 02:44:59;;;;;;;6.38;3.65;;;;;;;;;;1495795;39;20382;-86
2021/04/25 02:46:06;;;;;;;6.72;3.92;;;;;;;;;;1498135;39;20824;-83
2021/04/25 02:47:07;;;;;;;7.88;4.05;;;;;;;;;;1497925;39;20399;-84
2021/04/25 02:48:09;;;;;;;5.82;3.65;;;;;;;;;;1494297;39;20397;-84
2021/04/25 02:49:11;;;;;;;5.57;3.58;;;;;;;;;;1491010;39;20414;-85
2021/04/25 02:50:17;;;;;;;7.75;3.55;;;;;;;;;;1498775;39;20424;-82
2021/04/25 02:51:18;;;;;;;4.85;3.55;;;;;;;;;;1498046;39;20456;-83
2021/04/25 02:52:25;;;;;;;8.18;3.95;;;;;;;;;;1495689;39;20413;-83
2021/04/25 02:53:27;;;;;;;5.45;3.67;;;;;;;;;;1493775;39;20428;-84
2021/04/25 02:54:28;;;;;;;5.53;2.97;;;;;;;;;;1492730;39;20383;-83
2021/04/25 02:55:30;;;;;;;7.05;3.45;;;;;;;;;;1492035;39;20403;-84
2021/04/25 02:56:32;;;;;;;7.90;3.55;;;;;;;;;;1500489;39;20403;-85
2021/04/25 02:57:34;;;;;;;7.25;3.92;;;;;;;;;;1498827;39;20457;-82
2021/04/25 02:58:37;;;;;;;6.68;3.72;;;;;;;;;;1498408;39;20432;-83
2021/04/25 02:59:38;;;;;;;7.13;3.58;;;;;;;;;;1496614;39;20468;-84
2021/04/25 03:00:39;;;;;;;6.72;3.40;;;;;;;;;;1492076;39;20414;-83
2021/04/25 03:01:40;;;;;;;7.95;3.42;;;;;;;;;;1488023;39;20404;-83
2021/04/25 03:02:43;;;;;;;7.65;3.80;;;;;;;;;;1484242;39;20480;-82
2021/04/25 03:03:46;;;;;;;5.40;2.75;;;;;;;;;;1492328;39;20825;-84
2021/04/25 03:04:50;;;;;;;8.13;3.30;;;;;;;;;;1495764;39;20445;-83
2021/04/25 03:05:55;;;;;;;4.65;3.50;;;;;;;;;;1496503;39;20450;-84
2021/04/25 03:06:56;;;;;;;3.70;2.72;;;;;;;;;;1496283;39;20464;-84
2021/04/25 03:07:57;;;;;;;7.13;3.95;;;;;;;;;;1494863;39;20416;-83
2021/04/25 03:08:58;;;;;;;7.57;3.17;;;;;;;;;;1491419;39;20427;-83
2021/04/25 03:10:00;;;;;;;3.90;2.88;;;;;;;;;;1491817;39;20479;-83
2021/04/25 03:11:02;;;;;;;5.10;3.22;;;;;;;;;;1496037;39;20465;-83
2021/04/25 03:12:03;;;;;;;8.20;3.80;;;;;;;;;;1496082;39;20407;-82
2021/04/25 03:13:04;;;;;;;4.50;3.10;;;;;;;;;;1495674;39;20395;-83
2021/04/25 03:14:05;;;;;;;4.40;3.03;;;;;;;;;;1495679;39;20656;-83
2021/04/25 03:15:07;;;;;;;6.43;2.80;;;;;;;;;;1490263;39;20414;-84
2021/04/25 03:16:08;;;;;;;6.05;3.50;;;;;;;;;;1491160;39;20412;-83
2021/04/25 03:17:09;;;;;;;5.93;2.97;;;;;;;;;;1486671;39;20407;-83
2021/04/25 03:18:10;;;;;;;5.25;3.22;;;;;;;;;;1486961;39;20391;-84
2021/04/25 03:19:12;;;;;;;7.18;3.20;;;;;;;;;;1486396;39;20407;-83
2021/04/25 03:20:14;;;;;;;8.10;2.90;;;;;;;;;;1487181;39;20410;-84
2021/04/25 03:21:15;;;;;;;5.47;3.63;;;;;;;;;;1494672;39;20467;-83
2021/04/25 03:22:17;;;;;;;4.95;3.13;;;;;;;;;;1491222;39;20381;-83
2021/04/25 03:23:18;;;;;;;5.82;2.90;;;;;;;;;;1495004;39;20387;-83
2021/04/25 03:24:20;;;;;;;3.85;2.53;;;;;;;;;;1491271;39;20402;-82
2021/04/25 03:25:21;;;;;;;5.22;3.25;;;;;;;;;;1490800;39;20401;-83
2021/04/25 03:26:25;;;;;;;5.40;2.42;;;;;;;;;;1487401;39;20398;-82
2021/04/25 03:27:26;;;;;;;5.07;2.65;;;;;;;;;;1489748;39;20421;-83
2021/04/25 03:28:27;;;;;;;3.88;2.58;;;;;;;;;;1491398;39;20408;-83
2021/04/25 03:29:28;;;;;;;6.60;2.55;;;;;;;;;;1491066;39;20396;-83
2021/04/25 03:30:37;;;;;;;4.75;2.63;;;;;;;;;;1492611;39;20413;-83
2021/04/25 03:31:38;;;;;;;3.53;2.45;;;;;;;;;;1496155;39;20411;-83
2021/04/25 03:32:39;;;;;;;5.53;2.53;;;;;;;;;;1487314;39;20457;-82
2021/04/25 03:33:41;;;;;;;5.20;2.80;;;;;;;;;;1486624;39;20480;-84
2021/04/25 03:34:42;;;;;;;7.13;2.70;;;;;;;;;;1491359;39;20532;-83
2021/04/25 03:35:43;;;;;;;6.70;2.85;;;;;;;;;;1486821;39;20418;-83
2021/04/25 03:36:45;;;;;;;5.10;2.70;;;;;;;;;;1487114;39;20398;-83
2021/04/25 03:37:46;;;;;;;3.75;2.63;;;;;;;;;;1490633;39;20406;-83
2021/04/25 03:38:48;;;;;;;3.60;2.70;;;;;;;;;;1495279;39;20499;-83
2021/04/25 03:39:49;;;;;;;6.50;2.47;;;;;;;;;;1494658;39;20427;-85
2021/04/25 03:40:50;;;;;;;5.55;3.00;;;;;;;;;;1491027;39;20393;-84
2021/04/25 03:41:52;;;;;;;5.60;2.22;;;;;;;;;;1484410;40;20427;-83
2021/04/25 03:42:53;;;;;;;4.32;2.58;;;;;;;;;;1485436;39;20544;-83
2021/04/25 03:43:54;;;;;;;3.92;2.70;;;;;;;;;;1486626;39;20465;-83
2021/04/25 03:44:55;;;;;;;4.63;2.45;;;;;;;;;;1490453;39;20393;-83
2021/04/25 03:45:56;;;;;;;7.53;3.08;;;;;;;;;;1490842;39;20408;-84
2021/04/25 03:46:58;;;;;;;5.47;2.47;;;;;;;;;;1494855;39;20483;-83
2021/04/25 03:47:59;;;;;;;7.55;3.10;;;;;;;;;;1495099;39;20380;-84
2021/04/25 03:49:00;;;;;;;4.60;2.42;;;;;;;;;;1490820;39;20410;-83
2021/04/25 03:50:01;;;;;;;4.00;2.63;;;;;;;;;;1490987;39;20451;-83
2021/04/25 03:51:03;;;;;;;4.75;2.50;;;;;;;;;;1486821;39;20406;-83
2021/04/25 03:52:08;;;;;;;6.80;2.67;;;;;;;;;;1486674;39;20418;-84
2021/04/25 03:53:09;;;;;;;5.95;2.30;;;;;;;;;;1489855;39;20378;-83
2021/04/25 03:54:10;;;;;;;6.57;3.15;;;;;;;;;;1495275;39;20792;-84
2021/04/25 03:55:13;;;;;;;6.72;3.03;;;;;;;;;;1491126;39;20401;-84
2021/04/25 03:56:14;;;;;;;4.68;2.72;;;;;;;;;;1490810;39;20401;-83
2021/04/25 03:57:15;;;;;;;4.47;2.47;;;;;;;;;;1493336;39;20812;-83
2021/04/25 03:58:19;;;;;;;5.60;2.63;;;;;;;;;;1494705;39;20419;-83
2021/04/25 03:59:22;;;;;;;5.80;2.90;;;;;;;;;;1490868;39;21068;-84
2021/04/25 04:00:23;;;;;;;4.60;2.92;;;;;;;;;;1489381;39;20471;-84
2021/04/25 04:01:24;;;;;;;7.22;2.97;;;;;;;;;;1488160;39;20406;-83
2021/04/25 04:02:26;;;;;;;6.65;2.90;;;;;;;;;;1488172;40;20489;-84
2021/04/25 04:03:27;;;;;;;6.65;2.85;;;;;;;;;;1487484;40;20406;-83
2021/04/25 04:04:28;;;;;;;4.28;2.97;;;;;;;;;;1487166;39;20410;-84
2021/04/25 04:05:30;;;;;;;7.32;2.83;;;;;;;;;;1493154;39;20637;-83
2021/04/25 04:06:32;;;;;;;6.45;3.28;;;;;;;;;;1490627;39;20824;-83
2021/04/25 04:07:33;;;;;;;8.10;3.45;;;;;;;;;;1490729;39;20436;-83
2021/04/25 04:08:34;;;;;;;5.68;3.30;;;;;;;;;;1490605;39;20427;-83
2021/04/25 04:09:35;;;;;;;11.07;4.38;;;;;;;;;;1486547;39;20399;-83
2021/04/25 04:10:37;;;;;;;7.18;3.10;;;;;;;;;;1482464;40;20400;-84
2021/04/25 04:11:38;;;;;;;5.30;3.25;;;;;;;;;;1487294;39;20403;-84
2021/04/25 04:12:40;;;;;;;5.80;3.08;;;;;;;;;;1495261;39;20438;-84
2021/04/25 04:13:41;;;;;;;7.15;3.75;;;;;;;;;;1490712;39;20394;-84
2021/04/25 04:14:42;;;;;;;4.13;3.27;;;;;;;;;;1490279;39;20956;-84
2021/04/25 04:15:43;;;;;;;8.70;4.00;;;;;;;;;;1494568;39;20676;-84
2021/04/25 04:16:44;;;;;;;6.80;3.45;;;;;;;;;;1491093;39;20822;-84
2021/04/25 04:17:45;;;;;;;6.63;3.35;;;;;;;;;;1490035;39;20398;-84
2021/04/25 04:18:47;;;;;;;6.90;3.95;;;;;;;;;;1486506;39;20407;-83
2021/04/25 04:19:48;;;;;;;6.35;3.40;;;;;;;;;;1490767;39;20822;-84
2021/04/25 04:20:49;;;;;;;6.43;3.85;;;;;;;;;;1490680;39;20416;-86
2021/04/25 04:21:50;;;;;;;9.52;3.65;;;;;;;;;;1482185;39;20400;-84
2021/04/25 04:22:51;;;;;;;7.32;3.80;;;;;;;;;;1490357;39;20394;-84
2021/04/25 04:23:52;;;;;;;7.45;4.20;;;;;;;;;;1490478;39;20801;-84
2021/04/25 04:24:54;;;;;;;6.20;3.40;;;;;;;;;;1490806;39;20394;-84
2021/04/25 04:25:55;;;;;;;6.28;3.92;;;;;;;;;;1486597;39;20755;-84
2021/04/25 04:26:56;;;;;;;8.77;2.92;;;;;;;;;;1490265;39;20382;-84
2021/04/25 04:27:57;;;;;;;7.75;3.95;;;;;;;;;;1493849;39;20901;-83
2021/04/25 04:28:59;;;;;;;8.68;3.20;;;;;;;;;;1490688;39;20419;-84
2021/04/25 04:30:01;;;;;;;7.80;3.33;;;;;;;;;;1489585;39;21308;-83
2021/04/25 04:31:02;;;;;;;6.80;3.45;;;;;;;;;;1490587;39;20782;-85
2021/04/25 04:32:03;;;;;;;13.85;4.35;;;;;;;;;;1490595;39;20554;-83
2021/04/25 04:33:05;;;;;;;7.30;3.22;;;;;;;;;;1484072;39;20395;-83
2021/04/25 04:34:06;;;;;;;6.88;3.40;;;;;;;;;;1490396;39;20416;-83
2021/04/25 04:35:08;;;;;;;7.75;3.30;;;;;;;;;;1486363;39;20407;-83
2021/04/25 04:36:10;;;;;;;6.25;3.30;;;;;;;;;;1486710;39;20414;-83
2021/04/25 04:37:11;;;;;;;7.03;3.38;;;;;;;;;;1486589;39;20858;-83
2021/04/25 04:38:12;;;;;;;7.80;3.85;;;;;;;;;;1486333;39;20538;-83
2021/04/25 04:39:13;;;;;;;9.93;3.72;;;;;;;;;;1486737;39;20425;-86
2021/04/25 04:40:14;;;;;;;6.47;3.20;;;;;;;;;;1483046;40;20475;-85
2021/04/25 04:41:15;;;;;;;6.22;3.15;;;;;;;;;;1482540;39;20659;-84
2021/04/25 04:42:16;;;;;;;9.80;3.83;;;;;;;;;;1488640;39;20416;-84
2021/04/25 04:43:17;;;;;;;7.05;3.30;;;;;;;;;;1493535;39;20403;-84
2021/04/25 04:44:18;;;;;;;5.88;3.17;;;;;;;;;;1485955;40;20403;-83
2021/04/25 04:45:19;;;;;;;7.50;3.22;;;;;;;;;;1481846;40;20768;-85
2021/04/25 04:46:21;;;;;;;8.73;4.00;;;;;;;;;;1488908;39;20392;-84
2021/04/25 04:47:22;;;;;;;8.57;3.20;;;;;;;;;;1494848;39;20444;-84
2021/04/25 04:48:25;;;;;;;8.82;3.53;;;;;;;;;;1486426;39;20673;-83
2021/04/25 04:49:27;;;;;;;7.88;3.22;;;;;;;;;;1486901;39;20402;-84
2021/04/25 04:50:28;;;;;;;5.68;2.60;;;;;;;;;;1491472;39;20485;-83
2021/04/25 04:51:29;;;;;;;7.93;2.92;;;;;;;;;;1490778;39;20857;-84
2021/04/25 04:52:30;;;;;;;5.50;2.95;;;;;;;;;;1491060;39;20405;-84
2021/04/25 04:53:31;;;;;;;7.35;3.00;;;;;;;;;;1486347;39;20403;-84
2021/04/25 04:54:32;;;;;;;4.93;3.08;;;;;;;;;;1482313;40;20421;-84
2021/04/25 04:55:33;;;;;;;8.15;2.88;;;;;;;;;;1489730;39;20670;-83
2021/04/25 04:56:34;;;;;;;6.40;2.70;;;;;;;;;;1490678;39;20398;-84
2021/04/25 04:57:40;;;;;;;8.45;3.10;;;;;;;;;;1489834;40;20470;-85
2021/04/25 04:58:41;;;;;;;8.82;2.50;;;;;;;;;;1492936;39;20399;-85
2021/04/25 04:59:42;;;;;;;4.63;2.63;;;;;;;;;;1500338;39;20400;-83
2021/04/25 05:00:43;;;;;;;7.00;2.90;;;;;;;;;;1500385;39;20411;-86
2021/04/25 05:01:45;;;;;;;7.75;3.03;;;;;;;;;;1500980;39;20407;-86
2021/04/25 05:02:46;;;;;;;6.90;2.50;;;;;;;;;;1492850;39;20403;-85
2021/04/25 05:03:47;;;;;;;8.80;2.75;;;;;;;;;;1487536;39;20420;-82
2021/04/25 05:04:50;;;;;;;7.93;3.03;;;;;;;;;;1491775;39;20434;-83
2021/04/25 05:05:51;;;;;;;8.07;2.38;;;;;;;;;;1495281;39;20826;-83
2021/04/25 05:06:52;;;;;;;7.50;2.42;;;;;;;;;;1492896;39;20408;-82
2021/04/25 05:07:53;;;;;;;2.85;2.17;;;;;;;;;;1486612;39;20689;-82
2021/04/25 05:08:54;;;;;;;9.32;2.53;;;;;;;;;;1487247;39;20782;-83
2021/04/25 05:09:55;;;;;;;4.50;2.60;;;;;;;;;;1487410;39;20411;-83
2021/04/25 05:10:56;;;;;;;7.70;2.90;;;;;;;;;;1491508;39;20806;-83
2021/04/25 05:11:57;;;;;;;7.95;3.15;;;;;;;;;;1495233;39;20395;-82
2021/04/25 05:12:58;;;;;;;6.88;2.78;;;;;;;;;;1491224;39;20397;-83
2021/04/25 05:13:59;;;;;;;7.03;2.60;;;;;;;;;;1491243;39;20408;-83
2021/04/25 05:15:00;;;;;;;6.63;2.20;;;;;;;;;;1491212;39;20400;-83
2021/04/25 05:16:01;;;;;;;5.38;2.60;;;;;;;;;;1487153;39;20421;-83
2021/04/25 05:17:02;;;;;;;6.25;2.53;;;;;;;;;;1486920;39;20399;-83
2021/04/25 05:18:04;;;;;;;4.55;2.20;;;;;;;;;;1491211;39;20523;-83
2021/04/25 05:19:05;;;;;;;10.18;2.58;;;;;;;;;;1491425;39;20409;-82
2021/04/25 05:20:09;;;;;;;7.68;2.70;;;;;;;;;;1486309;40;20421;-82
2021/04/25 05:21:10;;;;;;;6.22;2.20;;;;;;;;;;1482896;40;20412;-83
2021/04/25 05:22:13;;;;;;;5.15;1.95;;;;;;;;;;1483438;39;20468;-83
2021/04/25 05:23:14;;;;;;;5.18;2.13;;;;;;;;;;1487402;39;20403;-82
2021/04/25 05:24:15;;;;;;;5.40;2.35;;;;;;;;;;1487432;39;21056;-82
2021/04/25 05:25:16;;;;;;;8.98;2.13;;;;;;;;;;1487390;39;20820;-83
2021/04/25 05:26:19;;;;;;;6.78;3.00;;;;;;;;;;1488248;39;20414;-83
2021/04/25 05:27:23;;;;;;;5.95;2.15;;;;;;;;;;1496196;39;20455;-83
2021/04/25 05:28:24;;;;;;;7.00;2.38;;;;;;;;;;1497603;39;20411;-83
2021/04/25 05:29:26;;;;;;;8.55;3.13;;;;;;;;;;1498497;39;20827;-83
2021/04/25 05:30:27;;;;;;;5.15;2.83;;;;;;;;;;1499532;39;20816;-83
2021/04/25 05:31:29;;;;;;;8.23;2.45;;;;;;;;;;1491062;40;20397;-84
2021/04/25 05:32:30;;;;;;;6.32;2.80;;;;;;;;;;1488384;39;20406;-83
2021/04/25 05:33:34;;;;;;;8.00;2.33;;;;;;;;;;1494387;39;20408;-82
2021/04/25 05:34:38;;;;;;;6.45;2.17;;;;;;;;;;1496081;39;20456;-85
2021/04/25 05:35:39;;;;;;;7.93;2.95;;;;;;;;;;1501363;39;20450;-82
2021/04/25 05:36:40;;;;;;;8.98;2.65;;;;;;;;;;1496711;39;20396;-83
2021/04/25 05:37:41;;;;;;;5.38;2.80;;;;;;;;;;1491672;39;20389;-83
2021/04/25 05:38:42;;;;;;;8.55;2.30;;;;;;;;;;1495679;39;20408;-83
2021/04/25 05:39:43;;;;;;;3.80;2.08;;;;;;;;;;1499662;39;20410;-82
2021/04/25 05:40:44;;;;;;;7.93;2.38;;;;;;;;;;1496498;39;20397;-83
2021/04/25 05:41:45;;;;;;;8.35;2.20;;;;;;;;;;1495948;39;20409;-82
2021/04/25 05:42:46;;;;;;;11.60;3.05;;;;;;;;;;1493206;39;20401;-83
2021/04/25 05:43:47;;;;;;;8.32;2.55;;;;;;;;;;1493229;39;20497;-83
2021/04/25 05:44:50;;;;;;;7.30;1.98;;;;;;;;;;1497381;39;20434;-83
2021/04/25 05:45:51;;;;;;;5.87;2.20;;;;;;;;;;1486871;40;20419;-82
2021/04/25 05:46:53;;;;;;;3.72;2.17;;;;;;;;;;1486222;40;20412;-83
2021/04/25 05:48:02;;;;;;;4.75;1.88;;;;;;;;;;1485835;39;20405;-82
2021/04/25 05:49:05;;;;;;;8.15;2.88;;;;;;;;;;1490968;39;20447;-83
2021/04/25 05:50:06;;;;;;;6.05;2.25;;;;;;;;;;1492761;39;20447;-83
2021/04/25 05:51:07;;;;;;;5.07;2.47;;;;;;;;;;1490284;40;20414;-82
2021/04/25 05:52:09;;;;;;;7.78;2.53;;;;;;;;;;1491962;39;20394;-82
2021/04/25 05:53:12;;;;;;;9.30;1.70;;;;;;;;;;1491508;40;20410;-83
2021/04/25 05:54:13;;;;;;;6.30;2.50;;;;;;;;;;1484504;39;20848;-83
2021/04/25 05:55:15;;;;;;;5.15;2.03;;;;;;;;;;1488439;39;20449;-83
2021/04/25 05:56:16;;;;;;;7.40;2.30;;;;;;;;;;1488483;39;20406;-83
2021/04/25 05:57:18;;;;;;;6.22;1.85;;;;;;;;;;1485236;39;20814;-83
2021/04/25 05:58:19;;;;;;;6.65;2.45;;;;;;;;;;1487955;39;20457;-83
2021/04/25 05:59:21;;;;;;;8.02;2.50;;;;;;;;;;1492059;39;20404;-84
2021/04/25 06:00:28;;;;;;;5.85;2.10;;;;;;;;;;1492496;39;20386;-83
2021/04/25 06:01:36;;;;;;;7.85;2.70;;;;;;;;;;1495732;39;20468;-83
2021/04/25 06:02:37;;;;;;;4.03;1.95;;;;;;;;;;1496148;39;20719;-82
2021/04/25 06:03:38;;;;;;;6.55;2.67;;;;;;;;;;1491402;39;20416;-83
2021/04/25 06:04:41;;;;;;;8.23;2.75;;;;;;;;;;1491481;39;20410;-83
2021/04/25 06:05:42;;;;;;;6.15;2.78;;;;;;;;;;1491701;39;20424;-82
2021/04/25 06:06:45;;;;;;;7.90;2.28;;;;;;;;;;1492394;39;20482;-83
2021/04/25 06:07:50;;;;;;;8.25;2.22;;;;;;;;;;1492616;39;20397;-84